Geneseo, NY

3:46 AM EDT on September 02, 2015 (GMT -0400)
Putnam Hall | | Change Station
CLOSE
Current Station
Personal Weather Station
Location: Geneseo, NY
Elevation: 696 ft
Nearby Weather Stations

Elev 696 ft 42.80 °N, 77.82 °W | Updated 42 minutes ago

Partly Cloudy
Partly Cloudy
69.1 °F
Feels Like 69.1 °F
N
4.5
Wind Variable Wind from East
Gusts 8.3 mph

Today
High -- | Low -- °F
--% Chance of Precip.
Yesterday
High -- | Low -- °F
Precip. -- in
6:36 AM 7:44 PM
Waning Gibbous, 82% visible
Pressure 30.09 in
Visibility 6.0 miles
Clouds Clear
Dew Point 65 °F
Humidity 86%
Rainfall Not available.
Snow Depth Not available.
UV 0 out of 12
Pollen 10.10 out of 12
Air Quality Not available.
Flu Activity Not available.
METAR KDSV 020654Z AUTO 14005KT 6SM BR CLR 18/17 A3008 RMK AO2 SLP188 T01780167 $
Pressure 30.09 in
Visibility 6.0 miles
Clouds Clear
Dew Point 65 °F
Humidity 86%
Rainfall Not available.
Snow Depth Not available.
UV 0 out of 12
Pollen 10.10 out of 12
Air Quality Not available.
Flu Activity Not available.
METAR KDSV 020654Z AUTO 14005KT 6SM BR CLR 18/17 A3008 RMK AO2 SLP188 T01780167 $

10-Day Weather Forecast

×

Almanac

Astronomy

Sep. 02, 2015 Rise Set
Actual Time
Civil Twilight
Nautical Twilight
Astronomical Twilight
Moon
Length of Visible Light
Length of Day
Tomorrow will be .
, % of the Moon is Illuminated

Today's Extremes

State Highs State Lows

Community

WunderPhotos

Upload Photos

1,851,723 photos uploaded!

WunderBlogs® & News

Nearby

Air Quality

  Air Quality AQ Index Pollutant
Not available.

Snow Depth

Station Depth Elevation

Earthquake Activity

City Distance Mag. Time & Date
Minimum magnitude displayed is 2.5.

Coastal Water Temperatures

Place Temperature

Stations

Nearby Weather Stations

Station Location Temp. Windchill Dew Point Humidity Wind Precip. Elev Updated Type